createdAt,value
2018-02-14T00:01:03.194Z,8.30
2018-02-14T00:06:05.887Z,7.60
2018-02-14T00:11:08.539Z,6.77
2018-02-14T00:16:11.022Z,6.97
2018-02-14T00:21:13.518Z,5.23
2018-02-14T00:26:16.051Z,3.73
2018-02-14T00:31:18.558Z,8.40
2018-02-14T00:36:21.071Z,4.87
2018-02-14T00:41:23.666Z,5.30
2018-02-14T00:46:26.170Z,21.83
2018-02-14T00:51:28.864Z,7.30
2018-02-14T00:56:31.398Z,3.97
2018-02-14T01:01:34.040Z,5.70
2018-02-14T01:06:37.188Z,3.10
2018-02-14T01:11:39.699Z,5.50
2018-02-14T01:16:43.135Z,4.43
2018-02-14T01:21:50.582Z,4.07
2018-02-14T01:26:53.134Z,5.33
2018-02-14T01:31:55.666Z,2.87
2018-02-14T01:36:58.217Z,5.27
2018-02-14T01:42:00.935Z,4.20
2018-02-14T01:47:03.458Z,4.17
2018-02-14T01:52:06.418Z,8.03
2018-02-14T01:57:08.935Z,4.00
2018-02-14T02:02:11.642Z,6.30
2018-02-14T02:07:14.162Z,6.67
2018-02-14T02:12:16.654Z,5.27
2018-02-14T02:17:19.553Z,2.97
2018-02-14T02:22:22.101Z,4.87
2018-02-14T02:27:24.665Z,4.50
2018-02-14T02:32:28.156Z,5.60
2018-02-14T02:37:30.744Z,2.90
2018-02-14T02:42:33.402Z,5.90
2018-02-14T02:47:35.963Z,2.90
2018-02-14T02:52:38.493Z,3.97
2018-02-14T02:57:41.198Z,15.93
2018-02-14T03:02:43.714Z,5.73
2018-02-14T03:07:46.314Z,5.90
2018-02-14T03:12:48.871Z,2.60
2018-02-14T03:17:51.456Z,3.00
2018-02-14T03:22:54.075Z,4.33
2018-02-14T03:27:56.607Z,4.47
2018-02-14T03:32:59.202Z,6.17
2018-02-14T03:38:02.502Z,4.50
2018-02-14T03:43:05.117Z,2.60
2018-02-14T03:48:07.706Z,4.00
2018-02-14T03:53:10.240Z,7.83
2018-02-14T03:58:13.339Z,3.73
2018-02-14T04:03:16.677Z,7.23
2018-02-14T04:08:19.212Z,3.80
2018-02-14T04:13:22.083Z,5.53
2018-02-14T04:18:24.829Z,8.17
2018-02-14T04:23:27.406Z,2.30
2018-02-14T04:28:30.200Z,7.07
2018-02-14T04:33:32.753Z,5.27
2018-02-14T04:38:35.727Z,5.80
2018-02-14T04:43:39.070Z,2.80
2018-02-14T04:48:42.261Z,3.03
2018-02-14T04:53:45.567Z,4.80
2018-02-14T04:58:48.112Z,3.60
2018-02-14T05:03:50.725Z,5.40
2018-02-14T05:08:54.191Z,4.60
2018-02-14T05:13:57.091Z,7.20
2018-02-14T05:18:59.778Z,4.37
2018-02-14T05:24:03.074Z,6.93
2018-02-14T05:29:06.488Z,5.97
2018-02-14T05:34:09.174Z,2.20
2018-02-14T05:39:12.224Z,2.50
2018-02-14T05:44:15.096Z,3.90
2018-02-14T05:49:18.408Z,4.07
2018-02-14T05:54:20.938Z,4.03
2018-02-14T05:59:23.606Z,3.70
2018-02-14T06:04:26.280Z,7.87
2018-02-14T06:09:28.897Z,8.40
2018-02-14T06:14:31.424Z,3.53
2018-02-14T06:19:35.026Z,5.73
2018-02-14T06:24:37.908Z,4.97
2018-02-14T06:29:40.448Z,2.33
2018-02-14T06:34:43.000Z,5.80
2018-02-14T06:39:47.180Z,3.00
2018-02-14T06:44:50.179Z,1.40
2018-02-14T06:49:52.909Z,3.07
2018-02-14T06:54:56.192Z,2.20
2018-02-14T06:59:59.243Z,3.07
2018-02-14T07:05:02.145Z,3.97
2018-02-14T07:10:04.735Z,1.33
2018-02-14T07:15:07.276Z,2.70
2018-02-14T07:20:09.993Z,3.87
2018-02-14T07:25:12.517Z,8.30
2018-02-14T07:30:15.044Z,4.80
2018-02-14T07:35:17.759Z,7.93
2018-02-14T07:40:20.923Z,2.60
2018-02-14T07:45:23.466Z,4.10
2018-02-14T07:50:26.020Z,5.63
2018-02-14T07:55:29.365Z,11.37
2018-02-14T08:00:32.129Z,8.80
2018-02-14T08:05:36.152Z,6.10
2018-02-14T08:10:39.572Z,7.40
2018-02-14T08:15:43.455Z,8.53
2018-02-14T08:20:46.127Z,11.57
2018-02-14T08:25:48.877Z,8.43
2018-02-14T08:30:52.279Z,5.60
2018-02-14T08:35:54.814Z,5.20
2018-02-14T08:40:57.889Z,6.23
2018-02-14T08:46:01.832Z,9.33
2018-02-14T08:51:05.139Z,8.83
2018-02-14T08:56:08.568Z,7.70
2018-02-14T09:01:11.326Z,7.47
2018-02-14T09:06:13.896Z,9.43
2018-02-14T09:11:16.511Z,6.30
2018-02-14T09:16:19.048Z,8.40
2018-02-14T09:21:22.433Z,5.43
2018-02-14T09:26:25.063Z,5.63
2018-02-14T09:31:27.611Z,7.03
2018-02-14T09:36:30.462Z,7.60
2018-02-14T09:41:33.032Z,4.73
2018-02-14T09:46:35.618Z,7.50
2018-02-14T09:51:38.175Z,3.47
2018-02-14T09:56:41.503Z,9.20
2018-02-14T10:01:44.346Z,7.87
2018-02-14T10:06:46.894Z,7.13
2018-02-14T10:11:49.443Z,14.33
2018-02-14T10:16:52.022Z,6.60
2018-02-14T10:21:55.111Z,12.27
2018-02-14T10:26:58.136Z,10.63
2018-02-14T10:32:00.709Z,7.70
2018-02-14T10:37:03.326Z,7.63
2018-02-14T10:42:06.028Z,13.40
2018-02-14T10:47:09.330Z,8.03
2018-02-14T10:52:11.870Z,9.70
2018-02-14T10:57:14.701Z,18.87
2018-02-14T11:02:17.445Z,17.27
2018-02-14T11:07:26.582Z,21.97
2018-02-14T11:12:29.521Z,21.23
2018-02-14T11:17:32.169Z,12.00
2018-02-14T11:22:34.707Z,7.90
2018-02-14T11:27:37.218Z,11.80
2018-02-14T11:32:39.771Z,9.53
2018-02-14T11:37:42.280Z,11.03
2018-02-14T11:42:45.048Z,15.73
2018-02-14T11:47:48.374Z,19.70
2018-02-14T11:52:50.889Z,14.33
2018-02-14T11:57:53.446Z,13.37
2018-02-14T12:02:55.971Z,6.10
2018-02-14T12:07:58.833Z,11.97
2018-02-14T12:13:02.167Z,12.33
2018-02-14T12:18:05.634Z,11.27
2018-02-14T12:23:08.952Z,8.10
2018-02-14T12:28:11.855Z,7.33
2018-02-14T12:33:15.135Z,10.43
2018-02-14T12:38:17.854Z,10.60
2018-02-14T12:43:20.542Z,8.80
2018-02-14T12:48:23.702Z,13.40
2018-02-14T12:53:27.001Z,7.10
2018-02-14T12:58:29.601Z,8.70
2018-02-14T13:03:32.479Z,9.33
2018-02-14T13:08:35.105Z,8.03
2018-02-14T13:13:38.747Z,11.47
2018-02-14T13:18:41.615Z,5.70
2018-02-14T13:23:44.776Z,9.30
2018-02-14T13:28:47.642Z,8.20
2018-02-14T13:33:51.030Z,6.10
2018-02-14T13:38:53.762Z,7.13
2018-02-14T13:43:57.022Z,8.30
2018-02-14T13:48:59.601Z,5.87
2018-02-14T13:54:02.148Z,9.33
2018-02-14T13:59:04.721Z,7.50
2018-02-14T14:04:09.834Z,11.53
2018-02-14T14:09:12.375Z,9.17
2018-02-14T14:14:14.899Z,8.33
2018-02-14T14:19:17.693Z,12.97
2018-02-14T14:24:20.979Z,14.00
2018-02-14T14:29:23.571Z,10.30
2018-02-14T14:34:26.123Z,9.90
2018-02-14T14:39:28.684Z,15.90
2018-02-14T14:44:32.017Z,12.00
2018-02-14T14:49:34.611Z,10.17
2018-02-14T14:54:37.987Z,8.37
2018-02-14T14:59:41.414Z,8.87
2018-02-14T15:04:44.146Z,12.80
2018-02-14T15:09:46.934Z,7.23
2018-02-14T15:14:49.491Z,8.70
2018-02-14T15:19:52.144Z,9.67
2018-02-14T15:24:54.919Z,10.33
2018-02-14T15:29:57.509Z,10.53
2018-02-14T15:35:00.092Z,8.43
2018-02-14T15:40:02.662Z,11.00
2018-02-14T15:45:05.192Z,7.87
2018-02-14T15:50:07.790Z,9.57
2018-02-14T15:55:10.512Z,7.80
2018-02-14T16:00:13.241Z,8.47
2018-02-14T16:05:16.210Z,10.43
2018-02-14T16:10:18.772Z,8.43
2018-02-14T16:15:21.340Z,9.13
2018-02-14T16:20:24.709Z,9.37
2018-02-14T16:25:27.474Z,9.57
2018-02-14T16:30:30.791Z,6.60
2018-02-14T16:35:34.122Z,7.97
2018-02-14T16:40:36.940Z,5.53
2018-02-14T16:45:39.561Z,10.80
2018-02-14T16:50:42.195Z,4.10
2018-02-14T16:55:45.521Z,7.77
2018-02-14T17:00:48.198Z,7.07
2018-02-14T17:05:50.736Z,7.83
2018-02-14T17:10:53.421Z,5.67
2018-02-14T17:15:55.958Z,5.10
2018-02-14T17:20:58.681Z,6.70
2018-02-14T17:26:03.152Z,4.50
2018-02-14T17:31:08.614Z,4.93
2018-02-14T17:36:11.385Z,5.17
2018-02-14T17:41:14.158Z,6.63
2018-02-14T17:46:16.716Z,6.27
2018-02-14T17:51:19.872Z,6.27
2018-02-14T17:56:22.469Z,7.07
2018-02-14T18:01:25.827Z,6.20
2018-02-14T18:06:28.417Z,7.67
2018-02-14T18:11:30.994Z,12.10
2018-02-14T18:16:33.602Z,11.67
2018-02-14T18:21:36.233Z,6.10
2018-02-14T18:26:38.779Z,7.27
2018-02-14T18:31:41.503Z,15.40
2018-02-14T18:36:44.065Z,7.83
2018-02-14T18:41:47.378Z,8.70
2018-02-14T18:46:50.738Z,8.27
2018-02-14T18:51:53.892Z,8.80
2018-02-14T18:56:59.791Z,9.53
2018-02-14T19:02:02.328Z,8.07
2018-02-14T19:07:04.897Z,12.00
2018-02-14T19:12:07.431Z,8.83
2018-02-14T19:17:10.243Z,10.33
2018-02-14T19:22:13.069Z,7.13
2018-02-14T19:27:15.801Z,8.63
2018-02-14T19:32:18.485Z,11.00
2018-02-14T19:37:21.915Z,22.23
2018-02-14T19:42:25.696Z,8.07
2018-02-14T19:47:29.596Z,16.03
2018-02-14T19:52:32.945Z,11.00
2018-02-14T19:57:35.825Z,22.80
2018-02-14T20:02:39.433Z,12.57
2018-02-14T20:07:42.774Z,11.43
2018-02-14T20:12:45.357Z,11.57
2018-02-14T20:17:48.442Z,10.70
2018-02-14T20:22:51.041Z,11.10
2018-02-14T20:27:54.167Z,14.47
2018-02-14T20:32:56.824Z,8.90
2018-02-14T20:37:59.547Z,9.80
2018-02-14T20:43:03.796Z,11.60
2018-02-14T20:48:06.699Z,11.27
2018-02-14T20:53:09.838Z,11.53
2018-02-14T20:58:12.803Z,14.93
2018-02-14T21:03:15.512Z,14.20
2018-02-14T21:08:18.449Z,13.10
2018-02-14T21:13:21.368Z,13.30
2018-02-14T21:18:24.305Z,10.77
2018-02-14T21:23:26.941Z,16.70
2018-02-14T21:28:29.605Z,16.83
2018-02-14T21:33:32.298Z,16.90
2018-02-14T21:38:36.090Z,13.60
2018-02-14T21:43:38.694Z,15.77
2018-02-14T21:48:41.228Z,13.87
2018-02-14T21:53:43.993Z,15.43
2018-02-14T21:58:46.554Z,12.10
2018-02-14T22:03:49.121Z,15.80
2018-02-14T22:08:51.813Z,13.77
2018-02-14T22:13:54.588Z,19.57
2018-02-14T22:18:58.022Z,13.77
2018-02-14T22:24:01.612Z,21.80
2018-02-14T22:29:04.149Z,13.63
2018-02-14T22:34:06.800Z,10.57
2018-02-14T22:39:10.134Z,12.53
2018-02-14T22:44:13.366Z,14.27
2018-02-14T22:49:16.100Z,14.40
2018-02-14T22:54:19.119Z,10.30
2018-02-14T22:59:21.848Z,17.87
2018-02-14T23:04:24.506Z,15.30
2018-02-14T23:09:27.488Z,18.67
2018-02-14T23:14:30.153Z,13.67
2018-02-14T23:19:35.699Z,14.63
2018-02-14T23:24:39.019Z,14.20
2018-02-14T23:29:43.056Z,11.60
2018-02-14T23:34:45.600Z,11.50
2018-02-14T23:39:48.256Z,9.90
2018-02-14T23:44:51.530Z,10.83
2018-02-14T23:49:54.277Z,9.30
2018-02-14T23:54:57.355Z,12.53
2018-02-14T23:59:59.919Z,12.10
